Great — TCYV6 — position and weather

sailwx.info

Track history (hours):
 
Tides and Currents Weather Stations Pressure Air Temp Water Temp Dewpoint Dewpoint Depression Visibility Wind Speed Wind Dir Waves Ship Positions

Great

Last reported at 2015-Jan-29 07:17 UTC. Time now 2015-Jan-29 20:27 UTC.
Position N 40°55' E 028°52'.

Length 187 m; draft 10.3 m.

Type: Cargo ship. MMSI: 271042241.

Date/timePositionNaut miles runAvg speedWind from/ knotsBaromVisibWave heightAir tempDewpointWater temp
2015-Jan-29 07:17N 40°55' E 028°52'3 3.8
2015-Jan-29 06:24N 40°58' E 028°54'0 0.0
2015-Jan-29 05:26N 40°58' E 028°54'0 0.0
2015-Jan-29 04:33N 40°58' E 028°54'0 0.0
2015-Jan-29 03:23N 40°58' E 028°54'0 0.0
2015-Jan-29 02:33N 40°58' E 028°54'0 0.0
2015-Jan-29 01:19N 40°58' E 028°54'0 0.0
2015-Jan-29 00:09N 40°58' E 028°54'0 0.0
2015-Jan-28 23:17N 40°58' E 028°54'0 0.0
2015-Jan-28 22:08N 40°58' E 028°54'0 0.0
2015-Jan-28 21:10N 40°58' E 028°54'0 0.5
2015-Jan-28 20:29N 40°58' E 028°55'0 0.4
2015-Jan-28 19:19N 40°57' E 028°55'0 0.0
2015-Jan-28 18:23N 40°57' E 028°55'0 0.0
2015-Jan-28 17:21N 40°57' E 028°55'1 0.9
2015-Jan-28 16:22N 40°58' E 028°56'19 8.7
2015-Jan-28 14:08N 41°15' E 029°08'335 7.2
2015-Jan-26 15:28N 46°35' E 031°27'8 8.4
2015-Jan-26 14:33N 46°36' E 031°38'9 9.4
2015-Jan-26 13:33N 46°37' E 031°52'8 7.9
2015-Jan-26 12:33N 46°45' E 031°54'6 5.4
2015-Jan-26 11:31N 46°50' E 031°56'0 0.0
2015-Jan-26 10:31N 46°50' E 031°56'0 0.0
2015-Jan-26 09:31N 46°50' E 031°56'0 0.0
2015-Jan-26 08:31N 46°50' E 031°56'0 0.0
2015-Jan-26 07:31N 46°50' E 031°56'0 0.0
2015-Jan-26 06:31N 46°50' E 031°56'1 1.2
2015-Jan-26 05:31N 46°50' E 031°57'0 0.0
2015-Jan-26 04:28N 46°50' E 031°57'0 0.0
2015-Jan-26 03:31N 46°50' E 031°57'0 0.0
2015-Jan-26 02:31N 46°50' E 031°57'0 0.0
2015-Jan-26 01:31N 46°50' E 031°57'0 0.0
2015-Jan-26 00:31N 46°50' E 031°57'0 0.0
2015-Jan-25 23:31N 46°50' E 031°57'0 0.0
2015-Jan-25 22:31N 46°50' E 031°57'0 0.0
2015-Jan-25 21:31N 46°50' E 031°57'0 0.0
2015-Jan-25 20:31N 46°50' E 031°57'0 0.0
2015-Jan-25 19:31N 46°50' E 031°57'0 0.0
2015-Jan-25 18:31N 46°50' E 031°57'0 0.0
2015-Jan-25 17:31N 46°50' E 031°57'0 0.0
2015-Jan-25 16:31N 46°50' E 031°57'0 0.0
2015-Jan-25 15:31N 46°50' E 031°57'0 0.0
2015-Jan-25 14:31N 46°50' E 031°57'0 0.0
2015-Jan-25 13:31N 46°50' E 031°57'0 0.0
2015-Jan-25 12:31N 46°50' E 031°57'0 0.0
2015-Jan-25 11:31N 46°50' E 031°57'0 0.0
2015-Jan-25 10:31N 46°50' E 031°57'0 0.0
2015-Jan-25 09:31N 46°50' E 031°57'0 0.0
2015-Jan-25 08:31N 46°50' E 031°57'0 0.0
2015-Jan-25 07:28N 46°50' E 031°57'0 0.0
2015-Jan-25 06:31N 46°50' E 031°57'0 0.0
2015-Jan-25 05:31N 46°50' E 031°57'0 0.0
2015-Jan-25 04:31N 46°50' E 031°57'0 0.0
2015-Jan-25 03:31N 46°50' E 031°57'0 0.0
2015-Jan-25 02:31N 46°50' E 031°57'0 0.0
2015-Jan-25 01:31N 46°50' E 031°57'0 0.0
2015-Jan-25 00:31N 46°50' E 031°57'0 0.0
2015-Jan-24 23:31N 46°50' E 031°57'0 0.0
2015-Jan-24 22:31N 46°50' E 031°57'0 0.0
2015-Jan-24 21:31N 46°50' E 031°57'0 0.0
2015-Jan-24 20:31N 46°50' E 031°57'0 0.0
2015-Jan-24 19:31N 46°50' E 031°57'0 0.0
2015-Jan-24 18:31N 46°50' E 031°57'0 0.0
2015-Jan-24 17:31N 46°50' E 031°57'0 0.0
2015-Jan-24 16:31N 46°50' E 031°57'0 0.0
2015-Jan-24 15:31N 46°50' E 031°57'0 0.0
2015-Jan-24 14:31N 46°50' E 031°57'0 0.0
2015-Jan-24 13:30N 46°50' E 031°57'0 0.0
2015-Jan-24 12:34N 46°50' E 031°57'0 0.0
2015-Jan-24 11:33N 46°50' E 031°57'0 0.0
2015-Jan-24 10:33N 46°50' E 031°57'0 0.0
2015-Jan-24 09:33N 46°50' E 031°57'0 0.0
2015-Jan-24 08:33N 46°50' E 031°57'0 0.0
2015-Jan-24 07:33N 46°50' E 031°57'0 0.0
2015-Jan-24 06:33N 46°50' E 031°57'0 0.0
2015-Jan-24 05:33N 46°50' E 031°57'0 0.0
2015-Jan-24 04:33N 46°50' E 031°57'0 0.0
2015-Jan-24 03:33N 46°50' E 031°57'0 0.0
2015-Jan-24 02:33N 46°50' E 031°57'0 0.0
2015-Jan-24 01:30N 46°50' E 031°57'0 0.0
2015-Jan-24 00:33N 46°50' E 031°57'0 0.0
2015-Jan-23 23:33N 46°50' E 031°57'0 0.0
2015-Jan-23 22:30N 46°50' E 031°57'0 0.0
2015-Jan-23 21:30N 46°50' E 031°57'0 0.0
2015-Jan-23 20:09N 46°50' E 031°57'0 0.0
2015-Jan-23 19:33N 46°50' E 031°57'0 0.0
2015-Jan-23 18:33N 46°50' E 031°57'0 0.0
2015-Jan-23 17:30N 46°50' E 031°57'0 0.0
2015-Jan-23 16:33N 46°50' E 031°57'0 0.0
2015-Jan-23 15:33N 46°50' E 031°57'0 0.0
2015-Jan-23 14:33N 46°50' E 031°57'0 0.0
2015-Jan-23 13:33N 46°50' E 031°57'0 0.0
2015-Jan-23 12:33N 46°50' E 031°57'0 0.0
2015-Jan-23 11:33N 46°50' E 031°57'0 0.0
2015-Jan-23 10:33N 46°50' E 031°57'0 0.0
2015-Jan-23 09:33N 46°50' E 031°57'0 0.0
2015-Jan-23 08:30N 46°50' E 031°57'0 0.0
2015-Jan-23 07:30N 46°50' E 031°57'0 0.0
2015-Jan-23 06:30N 46°50' E 031°57'0 0.0
2015-Jan-23 05:30N 46°50' E 031°57'0 0.0
2015-Jan-23 04:30N 46°50' E 031°57'0 0.0
2015-Jan-23 03:27N 46°50' E 031°57'0 0.0
2015-Jan-23 02:33N 46°50' E 031°57'0 0.0
2015-Jan-23 01:33N 46°50' E 031°57'0 0.0
2015-Jan-23 00:33N 46°50' E 031°57'0 0.0
2015-Jan-22 23:33N 46°50' E 031°57'0 0.0
2015-Jan-22 22:33N 46°50' E 031°57'0 0.0
2015-Jan-22 21:33N 46°50' E 031°57'0 0.0
2015-Jan-22 20:33N 46°50' E 031°57'0 0.0
2015-Jan-22 19:30N 46°50' E 031°57'0 0.0
2015-Jan-22 18:33N 46°50' E 031°57'0 0.0
2015-Jan-22 17:33N 46°50' E 031°57'0 0.0
2015-Jan-22 16:33N 46°50' E 031°57'0 0.0
2015-Jan-22 15:33N 46°50' E 031°57'0 0.0
2015-Jan-22 14:33N 46°50' E 031°57'0 0.0
2015-Jan-22 13:30N 46°50' E 031°57'0 0.0
2015-Jan-22 12:33N 46°50' E 031°57'0 0.0
2015-Jan-22 11:33N 46°50' E 031°57'0 0.0
2015-Jan-22 10:30N 46°50' E 031°57'0 0.0
2015-Jan-22 09:33N 46°50' E 031°57'0 0.0
2015-Jan-22 08:33N 46°50' E 031°57'0 0.0
2015-Jan-22 07:33N 46°50' E 031°57'0 0.0
2015-Jan-22 06:30N 46°50' E 031°57'0 0.0
2015-Jan-22 05:33N 46°50' E 031°57'0 0.0
2015-Jan-22 04:33N 46°50' E 031°57'0 0.0
2015-Jan-22 03:33N 46°50' E 031°57'0 0.0
2015-Jan-22 02:33N 46°50' E 031°57'0 0.0
2015-Jan-22 01:33N 46°50' E 031°57'0 0.0
2015-Jan-22 00:33N 46°50' E 031°57'0 0.0
2015-Jan-21 23:33N 46°50' E 031°57'0 0.0
2015-Jan-21 22:49N 46°50' E 031°57'0 0.0
2015-Jan-21 22:46N 46°50' E 031°57'0 0.0
2015-Jan-21 22:31N 46°50' E 031°57'0 0.0
2015-Jan-21 21:31N 46°50' E 031°57'0 0.0
2015-Jan-21 20:31N 46°50' E 031°57'0 0.0
2015-Jan-21 19:25N 46°50' E 031°57'0 0.0
2015-Jan-21 18:31N 46°50' E 031°57'0 0.0
2015-Jan-21 17:31N 46°50' E 031°57'0 0.0
2015-Jan-21 16:28N 46°50' E 031°57'0 0.0
2015-Jan-21 15:31N 46°50' E 031°57'0 0.0
2015-Jan-21 14:31N 46°50' E 031°57'0 0.0
2015-Jan-21 13:31N 46°50' E 031°57'0 0.0
2015-Jan-21 12:31N 46°50' E 031°57'0 0.0
2015-Jan-21 11:31N 46°50' E 031°57'0 0.0
2015-Jan-21 10:31N 46°50' E 031°57'0 0.0
2015-Jan-21 09:31N 46°50' E 031°57'0 0.0
2015-Jan-21 08:31N 46°50' E 031°57'0 0.0
2015-Jan-21 07:28N 46°50' E 031°57'0 0.0
2015-Jan-21 06:31N 46°50' E 031°57'0 0.0
2015-Jan-21 05:31N 46°50' E 031°57'0 0.0
2015-Jan-21 04:31N 46°50' E 031°57'0 0.0
2015-Jan-21 03:31N 46°50' E 031°57'0 0.0
2015-Jan-21 02:31N 46°50' E 031°57'0 0.0
2015-Jan-21 01:31N 46°50' E 031°57'0 0.0
2015-Jan-21 00:31N 46°50' E 031°57'0 0.0
2015-Jan-20 23:31N 46°50' E 031°57'0 0.0
2015-Jan-20 22:31N 46°50' E 031°57'0 0.0
2015-Jan-20 21:33N 46°50' E 031°57'0 0.0
2015-Jan-20 20:33N 46°50' E 031°57'0 0.0
2015-Jan-20 19:33N 46°50' E 031°57'0 0.0
2015-Jan-20 18:33N 46°50' E 031°57'0 0.0
2015-Jan-20 17:30N 46°50' E 031°57'0 0.0
2015-Jan-20 16:33N 46°50' E 031°57'0 0.0
2015-Jan-20 15:30N 46°50' E 031°57'0 0.0
2015-Jan-20 14:33N 46°50' E 031°57'0 0.0
2015-Jan-20 13:33N 46°50' E 031°57'0 0.0
2015-Jan-20 12:33N 46°50' E 031°57'0 0.0
2015-Jan-20 11:33N 46°50' E 031°57'0 0.0
2015-Jan-20 10:33N 46°50' E 031°57'0 0.0
2015-Jan-20 09:33N 46°50' E 031°57'0 0.0
2015-Jan-20 08:33N 46°50' E 031°57'0 0.0
2015-Jan-20 07:33N 46°50' E 031°57'0 0.0
2015-Jan-20 06:33N 46°50' E 031°57'0 0.0
2015-Jan-20 05:32N 46°50' E 031°57'0 0.0
2015-Jan-20 04:32N 46°50' E 031°57'0 0.0
2015-Jan-20 03:26N 46°50' E 031°57'0 0.0
2015-Jan-20 02:32N 46°50' E 031°57'0 0.0
2015-Jan-20 01:29N 46°50' E 031°57'0 0.0
2015-Jan-20 00:32N 46°50' E 031°57'0 0.0
2015-Jan-19 23:32N 46°50' E 031°57'0 0.0
2015-Jan-19 22:32N 46°50' E 031°57'0 0.0
2015-Jan-19 21:32N 46°50' E 031°57'0 0.0
2015-Jan-19 20:32N 46°50' E 031°57'0 0.0
2015-Jan-19 19:32N 46°50' E 031°57'0 0.0
2015-Jan-19 18:32N 46°50' E 031°57'0 0.0
2015-Jan-19 17:32N 46°50' E 031°57'0 0.0
2015-Jan-19 16:32N 46°50' E 031°57'0 0.0
2015-Jan-19 15:32N 46°50' E 031°57'0 0.0
2015-Jan-19 14:32N 46°50' E 031°57'0 0.0
2015-Jan-19 13:31N 46°50' E 031°57'0 0.0
2015-Jan-19 12:31N 46°50' E 031°57'0 0.0
2015-Jan-19 11:31N 46°50' E 031°57'0 0.0
2015-Jan-19 10:31N 46°50' E 031°57'0 0.0
2015-Jan-19 09:31N 46°50' E 031°57'0 0.0
2015-Jan-19 08:31N 46°50' E 031°57'0 0.0
2015-Jan-19 07:31N 46°50' E 031°57'  
Track history (hours):
 
Tides and Currents Weather Stations Pressure Air Temp Water Temp Dewpoint Dewpoint Depression Visibility Wind Speed Wind Dir Waves Ship Positions

Great

Last reported at 2015-Jan-29 07:17 UTC. Time now 2015-Jan-29 20:27 UTC.
Position N 40°55' E 028°52'.

Length 187 m; draft 10.3 m.

Type: Cargo ship. MMSI: 271042241.

Date/timePositionNaut miles runAvg speedWind from/ knotsBaromVisibWave heightAir tempDewpointWater temp
2015-Jan-29 07:17N 40°55' E 028°52'3 3.8
2015-Jan-29 06:24N 40°58' E 028°54'0 0.0
2015-Jan-29 05:26N 40°58' E 028°54'0 0.0
2015-Jan-29 04:33N 40°58' E 028°54'0 0.0
2015-Jan-29 03:23N 40°58' E 028°54'0 0.0
2015-Jan-29 02:33N 40°58' E 028°54'0 0.0
2015-Jan-29 01:19N 40°58' E 028°54'0 0.0
2015-Jan-29 00:09N 40°58' E 028°54'0 0.0
2015-Jan-28 23:17N 40°58' E 028°54'0 0.0
2015-Jan-28 22:08N 40°58' E 028°54'0 0.0
2015-Jan-28 21:10N 40°58' E 028°54'0 0.5
2015-Jan-28 20:29N 40°58' E 028°55'0 0.4
2015-Jan-28 19:19N 40°57' E 028°55'0 0.0
2015-Jan-28 18:23N 40°57' E 028°55'0 0.0
2015-Jan-28 17:21N 40°57' E 028°55'1 0.9
2015-Jan-28 16:22N 40°58' E 028°56'19 8.7
2015-Jan-28 14:08N 41°15' E 029°08'335 7.2
2015-Jan-26 15:28N 46°35' E 031°27'8 8.4
2015-Jan-26 14:33N 46°36' E 031°38'9 9.4
2015-Jan-26 13:33N 46°37' E 031°52'8 7.9
2015-Jan-26 12:33N 46°45' E 031°54'6 5.4
2015-Jan-26 11:31N 46°50' E 031°56'0 0.0
2015-Jan-26 10:31N 46°50' E 031°56'0 0.0
2015-Jan-26 09:31N 46°50' E 031°56'0 0.0
2015-Jan-26 08:31N 46°50' E 031°56'0 0.0
2015-Jan-26 07:31N 46°50' E 031°56'0 0.0
2015-Jan-26 06:31N 46°50' E 031°56'1 1.2
2015-Jan-26 05:31N 46°50' E 031°57'0 0.0
2015-Jan-26 04:28N 46°50' E 031°57'0 0.0
2015-Jan-26 03:31N 46°50' E 031°57'0 0.0
2015-Jan-26 02:31N 46°50' E 031°57'0 0.0
2015-Jan-26 01:31N 46°50' E 031°57'0 0.0
2015-Jan-26 00:31N 46°50' E 031°57'0 0.0
2015-Jan-25 23:31N 46°50' E 031°57'0 0.0
2015-Jan-25 22:31N 46°50' E 031°57'0 0.0
2015-Jan-25 21:31N 46°50' E 031°57'0 0.0
2015-Jan-25 20:31N 46°50' E 031°57'0 0.0
2015-Jan-25 19:31N 46°50' E 031°57'0 0.0
2015-Jan-25 18:31N 46°50' E 031°57'0 0.0
2015-Jan-25 17:31N 46°50' E 031°57'0 0.0
2015-Jan-25 16:31N 46°50' E 031°57'0 0.0
2015-Jan-25 15:31N 46°50' E 031°57'0 0.0
2015-Jan-25 14:31N 46°50' E 031°57'0 0.0
2015-Jan-25 13:31N 46°50' E 031°57'0 0.0
2015-Jan-25 12:31N 46°50' E 031°57'0 0.0
2015-Jan-25 11:31N 46°50' E 031°57'0 0.0
2015-Jan-25 10:31N 46°50' E 031°57'0 0.0
2015-Jan-25 09:31N 46°50' E 031°57'0 0.0
2015-Jan-25 08:31N 46°50' E 031°57'0 0.0
2015-Jan-25 07:28N 46°50' E 031°57'0 0.0
2015-Jan-25 06:31N 46°50' E 031°57'0 0.0
2015-Jan-25 05:31N 46°50' E 031°57'0 0.0
2015-Jan-25 04:31N 46°50' E 031°57'0 0.0
2015-Jan-25 03:31N 46°50' E 031°57'0 0.0
2015-Jan-25 02:31N 46°50' E 031°57'0 0.0
2015-Jan-25 01:31N 46°50' E 031°57'0 0.0
2015-Jan-25 00:31N 46°50' E 031°57'0 0.0
2015-Jan-24 23:31N 46°50' E 031°57'0 0.0
2015-Jan-24 22:31N 46°50' E 031°57'0 0.0
2015-Jan-24 21:31N 46°50' E 031°57'0 0.0
2015-Jan-24 20:31N 46°50' E 031°57'0 0.0
2015-Jan-24 19:31N 46°50' E 031°57'0 0.0
2015-Jan-24 18:31N 46°50' E 031°57'0 0.0
2015-Jan-24 17:31N 46°50' E 031°57'0 0.0
2015-Jan-24 16:31N 46°50' E 031°57'0 0.0
2015-Jan-24 15:31N 46°50' E 031°57'0 0.0
2015-Jan-24 14:31N 46°50' E 031°57'0 0.0
2015-Jan-24 13:30N 46°50' E 031°57'0 0.0
2015-Jan-24 12:34N 46°50' E 031°57'0 0.0
2015-Jan-24 11:33N 46°50' E 031°57'0 0.0
2015-Jan-24 10:33N 46°50' E 031°57'0 0.0
2015-Jan-24 09:33N 46°50' E 031°57'0 0.0
2015-Jan-24 08:33N 46°50' E 031°57'0 0.0
2015-Jan-24 07:33N 46°50' E 031°57'0 0.0
2015-Jan-24 06:33N 46°50' E 031°57'0 0.0
2015-Jan-24 05:33N 46°50' E 031°57'0 0.0
2015-Jan-24 04:33N 46°50' E 031°57'0 0.0
2015-Jan-24 03:33N 46°50' E 031°57'0 0.0
2015-Jan-24 02:33N 46°50' E 031°57'0 0.0
2015-Jan-24 01:30N 46°50' E 031°57'0 0.0
2015-Jan-24 00:33N 46°50' E 031°57'0 0.0
2015-Jan-23 23:33N 46°50' E 031°57'0 0.0
2015-Jan-23 22:30N 46°50' E 031°57'0 0.0
2015-Jan-23 21:30N 46°50' E 031°57'0 0.0
2015-Jan-23 20:09N 46°50' E 031°57'0 0.0
2015-Jan-23 19:33N 46°50' E 031°57'0 0.0
2015-Jan-23 18:33N 46°50' E 031°57'0 0.0
2015-Jan-23 17:30N 46°50' E 031°57'0 0.0
2015-Jan-23 16:33N 46°50' E 031°57'0 0.0
2015-Jan-23 15:33N 46°50' E 031°57'0 0.0
2015-Jan-23 14:33N 46°50' E 031°57'0 0.0
2015-Jan-23 13:33N 46°50' E 031°57'0 0.0
2015-Jan-23 12:33N 46°50' E 031°57'0 0.0
2015-Jan-23 11:33N 46°50' E 031°57'0 0.0
2015-Jan-23 10:33N 46°50' E 031°57'0 0.0
2015-Jan-23 09:33N 46°50' E 031°57'0 0.0
2015-Jan-23 08:30N 46°50' E 031°57'0 0.0
2015-Jan-23 07:30N 46°50' E 031°57'0 0.0
2015-Jan-23 06:30N 46°50' E 031°57'0 0.0
2015-Jan-23 05:30N 46°50' E 031°57'0 0.0
2015-Jan-23 04:30N 46°50' E 031°57'0 0.0
2015-Jan-23 03:27N 46°50' E 031°57'0 0.0
2015-Jan-23 02:33N 46°50' E 031°57'0 0.0
2015-Jan-23 01:33N 46°50' E 031°57'0 0.0
2015-Jan-23 00:33N 46°50' E 031°57'0 0.0
2015-Jan-22 23:33N 46°50' E 031°57'0 0.0
2015-Jan-22 22:33N 46°50' E 031°57'0 0.0
2015-Jan-22 21:33N 46°50' E 031°57'0 0.0
2015-Jan-22 20:33N 46°50' E 031°57'0 0.0
2015-Jan-22 19:30N 46°50' E 031°57'0 0.0
2015-Jan-22 18:33N 46°50' E 031°57'0 0.0
2015-Jan-22 17:33N 46°50' E 031°57'0 0.0
2015-Jan-22 16:33N 46°50' E 031°57'0 0.0
2015-Jan-22 15:33N 46°50' E 031°57'0 0.0
2015-Jan-22 14:33N 46°50' E 031°57'0 0.0
2015-Jan-22 13:30N 46°50' E 031°57'0 0.0
2015-Jan-22 12:33N 46°50' E 031°57'0 0.0
2015-Jan-22 11:33N 46°50' E 031°57'0 0.0
2015-Jan-22 10:30N 46°50' E 031°57'0 0.0
2015-Jan-22 09:33N 46°50' E 031°57'0 0.0
2015-Jan-22 08:33N 46°50' E 031°57'0 0.0
2015-Jan-22 07:33N 46°50' E 031°57'0 0.0
2015-Jan-22 06:30N 46°50' E 031°57'0 0.0
2015-Jan-22 05:33N 46°50' E 031°57'0 0.0
2015-Jan-22 04:33N 46°50' E 031°57'0 0.0
2015-Jan-22 03:33N 46°50' E 031°57'0 0.0
2015-Jan-22 02:33N 46°50' E 031°57'0 0.0
2015-Jan-22 01:33N 46°50' E 031°57'0 0.0
2015-Jan-22 00:33N 46°50' E 031°57'0 0.0
2015-Jan-21 23:33N 46°50' E 031°57'0 0.0
2015-Jan-21 22:49N 46°50' E 031°57'0 0.0
2015-Jan-21 22:46N 46°50' E 031°57'0 0.0
2015-Jan-21 22:31N 46°50' E 031°57'0 0.0
2015-Jan-21 21:31N 46°50' E 031°57'0 0.0
2015-Jan-21 20:31N 46°50' E 031°57'0 0.0
2015-Jan-21 19:25N 46°50' E 031°57'0 0.0
2015-Jan-21 18:31N 46°50' E 031°57'0 0.0
2015-Jan-21 17:31N 46°50' E 031°57'0 0.0
2015-Jan-21 16:28N 46°50' E 031°57'0 0.0
2015-Jan-21 15:31N 46°50' E 031°57'0 0.0
2015-Jan-21 14:31N 46°50' E 031°57'0 0.0
2015-Jan-21 13:31N 46°50' E 031°57'0 0.0
2015-Jan-21 12:31N 46°50' E 031°57'0 0.0
2015-Jan-21 11:31N 46°50' E 031°57'0 0.0
2015-Jan-21 10:31N 46°50' E 031°57'0 0.0
2015-Jan-21 09:31N 46°50' E 031°57'0 0.0
2015-Jan-21 08:31N 46°50' E 031°57'0 0.0
2015-Jan-21 07:28N 46°50' E 031°57'0 0.0
2015-Jan-21 06:31N 46°50' E 031°57'0 0.0
2015-Jan-21 05:31N 46°50' E 031°57'0 0.0
2015-Jan-21 04:31N 46°50' E 031°57'0 0.0
2015-Jan-21 03:31N 46°50' E 031°57'0 0.0
2015-Jan-21 02:31N 46°50' E 031°57'0 0.0
2015-Jan-21 01:31N 46°50' E 031°57'0 0.0
2015-Jan-21 00:31N 46°50' E 031°57'0 0.0
2015-Jan-20 23:31N 46°50' E 031°57'0 0.0
2015-Jan-20 22:31N 46°50' E 031°57'0 0.0
2015-Jan-20 21:33N 46°50' E 031°57'0 0.0
2015-Jan-20 20:33N 46°50' E 031°57'0 0.0
2015-Jan-20 19:33N 46°50' E 031°57'0 0.0
2015-Jan-20 18:33N 46°50' E 031°57'0 0.0
2015-Jan-20 17:30N 46°50' E 031°57'0 0.0
2015-Jan-20 16:33N 46°50' E 031°57'0 0.0
2015-Jan-20 15:30N 46°50' E 031°57'0 0.0
2015-Jan-20 14:33N 46°50' E 031°57'0 0.0
2015-Jan-20 13:33N 46°50' E 031°57'0 0.0
2015-Jan-20 12:33N 46°50' E 031°57'0 0.0
2015-Jan-20 11:33N 46°50' E 031°57'0 0.0
2015-Jan-20 10:33N 46°50' E 031°57'0 0.0
2015-Jan-20 09:33N 46°50' E 031°57'0 0.0
2015-Jan-20 08:33N 46°50' E 031°57'0 0.0
2015-Jan-20 07:33N 46°50' E 031°57'0 0.0
2015-Jan-20 06:33N 46°50' E 031°57'0 0.0
2015-Jan-20 05:32N 46°50' E 031°57'0 0.0
2015-Jan-20 04:32N 46°50' E 031°57'0 0.0
2015-Jan-20 03:26N 46°50' E 031°57'0 0.0
2015-Jan-20 02:32N 46°50' E 031°57'0 0.0
2015-Jan-20 01:29N 46°50' E 031°57'0 0.0
2015-Jan-20 00:32N 46°50' E 031°57'0 0.0
2015-Jan-19 23:32N 46°50' E 031°57'0 0.0
2015-Jan-19 22:32N 46°50' E 031°57'0 0.0
2015-Jan-19 21:32N 46°50' E 031°57'0 0.0
2015-Jan-19 20:32N 46°50' E 031°57'0 0.0
2015-Jan-19 19:32N 46°50' E 031°57'0 0.0
2015-Jan-19 18:32N 46°50' E 031°57'0 0.0
2015-Jan-19 17:32N 46°50' E 031°57'0 0.0
2015-Jan-19 16:32N 46°50' E 031°57'0 0.0
2015-Jan-19 15:32N 46°50' E 031°57'0 0.0
2015-Jan-19 14:32N 46°50' E 031°57'0 0.0
2015-Jan-19 13:31N 46°50' E 031°57'0 0.0
2015-Jan-19 12:31N 46°50' E 031°57'0 0.0
2015-Jan-19 11:31N 46°50' E 031°57'0 0.0
2015-Jan-19 10:31N 46°50' E 031°57'0 0.0
2015-Jan-19 09:31N 46°50' E 031°57'0 0.0
2015-Jan-19 08:31N 46°50' E 031°57'0 0.0
2015-Jan-19 07:31N 46°50' E 031°57'  

Dump ship's entire track history